sensor_id;sensor_type;location;lat;lon;timestamp;pressure;altitude;pressure_sealevel;temperature;humidity
5350;BME280;2697;42.144;24.794;2023-02-12T00:01:13;152551.31;;;-0.07;71.15
5350;BME280;2697;42.144;24.794;2023-02-12T00:03:39;152561.72;;;-0.03;70.97
5350;BME280;2697;42.144;24.794;2023-02-12T00:06:06;152572.19;;;0.01;71.30
5350;BME280;2697;42.144;24.794;2023-02-12T00:08:32;152586.53;;;0.07;70.76
5350;BME280;2697;42.144;24.794;2023-02-12T00:10:58;152572.19;;;0.01;70.20
5350;BME280;2697;42.144;24.794;2023-02-12T00:13:23;152612.63;;;0.17;69.79
5350;BME280;2697;42.144;24.794;2023-02-12T00:15:49;152573.50;;;0.02;70.08
5350;BME280;2697;42.144;24.794;2023-02-12T00:18:14;152337.38;;;-0.91;74.35
5350;BME280;2697;42.144;24.794;2023-02-12T00:20:40;152238.31;;;-1.29;77.60
5350;BME280;2697;42.144;24.794;2023-02-12T00:23:05;152266.97;;;-1.18;78.43
5350;BME280;2697;42.144;24.794;2023-02-12T00:25:31;152247.41;;;-1.26;79.49
5350;BME280;2697;42.144;24.794;2023-02-12T00:27:57;152201.78;;;-1.44;80.73
5350;BME280;2697;42.144;24.794;2023-02-12T00:30:22;152180.94;;;-1.52;82.70
5350;BME280;2697;42.144;24.794;2023-02-12T00:32:47;152184.84;;;-1.50;82.21
5350;BME280;2697;42.144;24.794;2023-02-12T00:35:13;152203.09;;;-1.43;82.85
5350;BME280;2697;42.144;24.794;2023-02-12T00:37:38;152217.44;;;-1.37;83.01
5350;BME280;2697;42.144;24.794;2023-02-12T00:40:04;152235.72;;;-1.30;83.90
5350;BME280;2697;42.144;24.794;2023-02-12T00:42:30;152235.72;;;-1.30;82.65
5350;BME280;2697;42.144;24.794;2023-02-12T00:44:55;152266.97;;;-1.18;81.17
5350;BME280;2697;42.144;24.794;2023-02-12T00:47:21;152312.63;;;-1.00;80.85
5350;BME280;2697;42.144;24.794;2023-02-12T00:49:46;152334.78;;;-0.92;79.94
5350;BME280;2697;42.144;24.794;2023-02-12T00:52:11;152346.50;;;-0.87;78.56
5350;BME280;2697;42.144;24.794;2023-02-12T00:54:37;152317.81;;;-0.98;80.86
5350;BME280;2697;42.144;24.794;2023-02-12T00:57:02;152346.50;;;-0.87;80.32
5350;BME280;2697;42.144;24.794;2023-02-12T00:59:28;152389.53;;;-0.70;77.97
5350;BME280;2697;42.144;24.794;2023-02-12T01:01:54;152441.69;;;-0.50;76.87
5350;BME280;2697;42.144;24.794;2023-02-12T01:04:21;152501.72;;;-0.26;74.34
5350;BME280;2697;42.144;24.794;2023-02-12T01:06:47;152512.16;;;-0.22;74.48
5350;BME280;2697;42.144;24.794;2023-02-12T01:09:13;152556.50;;;-0.05;73.33
5350;BME280;2697;42.144;24.794;2023-02-12T01:11:38;152613.91;;;0.17;70.87
5350;BME280;2697;42.144;24.794;2023-02-12T01:14:05;152640.03;;;0.27;70.08
5350;BME280;2697;42.144;24.794;2023-02-12T01:16:31;152666.16;;;0.38;67.92
5350;BME280;2697;42.144;24.794;2023-02-12T01:18:58;152731.41;;;0.63;65.26
5350;BME280;2697;42.144;24.794;2023-02-12T01:21:26;152818.94;;;0.97;62.87
5350;BME280;2697;42.144;24.794;2023-02-12T01:23:53;152886.88;;;1.24;60.34
5350;BME280;2697;42.144;24.794;2023-02-12T01:26:20;152971.75;;;1.57;57.99
5350;BME280;2697;42.144;24.794;2023-02-12T01:28:51;153031.91;;;1.80;56.57
5350;BME280;2697;42.144;24.794;2023-02-12T01:31:19;153072.44;;;1.96;53.84
5350;BME280;2697;42.144;24.794;2023-02-12T01:33:54;153126.03;;;2.17;52.68
5350;BME280;2697;42.144;24.794;2023-02-12T01:36:20;153103.81;;;2.08;53.20
5350;BME280;2697;42.144;24.794;2023-02-12T01:38:46;153146.97;;;2.25;53.20
5350;BME280;2697;42.144;24.794;2023-02-12T01:41:16;153194.03;;;2.43;52.14
5350;BME280;2697;42.144;24.794;2023-02-12T01:43:42;153191.44;;;2.42;51.68
5350;BME280;2697;42.144;24.794;2023-02-12T01:46:10;153207.09;;;2.48;51.49
5350;BME280;2697;42.144;24.794;2023-02-12T01:48:40;153218.88;;;2.53;51.64
5350;BME280;2697;42.144;24.794;2023-02-12T01:51:08;153248.97;;;2.65;50.55
5350;BME280;2697;42.144;24.794;2023-02-12T01:53:39;153317.00;;;2.91;48.88
5350;BME280;2697;42.144;24.794;2023-02-12T01:56:06;153348.38;;;3.03;49.09
5350;BME280;2697;42.144;24.794;2023-02-12T01:58:36;153398.09;;;3.23;47.99
5350;BME280;2697;42.144;24.794;2023-02-12T02:01:04;153434.78;;;3.37;47.88
5350;BME280;2697;42.144;24.794;2023-02-12T02:03:31;153432.16;;;3.36;46.40
5350;BME280;2697;42.144;24.794;2023-02-12T02:06:14;153430.84;;;3.35;46.80
5350;BME280;2697;42.144;24.794;2023-02-12T02:08:41;153437.38;;;3.38;46.60
5350;BME280;2697;42.144;24.794;2023-02-12T02:11:07;153432.16;;;3.36;47.11
5350;BME280;2697;42.144;24.794;2023-02-12T02:13:53;153413.81;;;3.29;47.04
5350;BME280;2697;42.144;24.794;2023-02-12T02:16:45;153395.50;;;3.22;46.20
5350;BME280;2697;42.144;24.794;2023-02-12T02:19:23;153396.81;;;3.22;46.95
5350;BME280;2697;42.144;24.794;2023-02-12T02:22:01;153353.59;;;3.05;45.90
5350;BME280;2697;42.144;24.794;2023-02-12T02:33:50;153290.84;;;2.81;45.38
5350;BME280;2697;42.144;24.794;2023-02-12T02:39:09;153358.88;;;3.07;46.00
5350;BME280;2697;42.144;24.794;2023-02-12T02:41:47;153326.13;;;2.95;46.28
5350;BME280;2697;42.144;24.794;2023-02-12T02:44:29;153343.16;;;3.01;46.54
5350;BME280;2697;42.144;24.794;2023-02-12T02:46:59;153332.66;;;2.97;46.79
5350;BME280;2697;42.144;24.794;2023-02-12T02:49:30;153336.63;;;2.99;45.84
5350;BME280;2697;42.144;24.794;2023-02-12T02:52:02;153345.78;;;3.02;46.44
5350;BME280;2697;42.144;24.794;2023-02-12T02:54:32;153340.53;;;3.00;47.87
5350;BME280;2697;42.144;24.794;2023-02-12T02:57:05;153314.38;;;2.90;47.29
5350;BME280;2697;42.144;24.794;2023-02-12T02:59:37;153337.94;;;2.99;47.42
5350;BME280;2697;42.144;24.794;2023-02-12T03:02:30;153366.72;;;3.10;48.29
5350;BME280;2697;42.144;24.794;2023-02-12T03:05:09;153442.63;;;3.40;48.44
5350;BME280;2697;42.144;24.794;2023-02-12T03:07:56;153445.22;;;3.41;47.70
5350;BME280;2697;42.144;24.794;2023-02-12T03:10:26;153477.97;;;3.54;48.26
5350;BME280;2697;42.144;24.794;2023-02-12T03:13:02;153450.44;;;3.43;48.06
5350;BME280;2697;42.144;24.794;2023-02-12T03:15:44;153455.72;;;3.45;47.09
5350;BME280;2697;42.144;24.794;2023-02-12T03:18:18;153437.38;;;3.38;47.28
5350;BME280;2697;42.144;24.794;2023-02-12T03:20:49;153419.06;;;3.31;47.71
5350;BME280;2697;42.144;24.794;2023-02-12T03:23:38;153400.72;;;3.24;47.71
5350;BME280;2697;42.144;24.794;2023-02-12T03:26:11;153408.59;;;3.27;47.27
5350;BME280;2697;42.144;24.794;2023-02-12T03:28:37;153391.56;;;3.20;47.26
5350;BME280;2697;42.144;24.794;2023-02-12T03:36:53;153409.91;;;3.27;47.76
5350;BME280;2697;42.144;24.794;2023-02-12T03:40:06;153419.06;;;3.31;46.08
5350;BME280;2697;42.144;24.794;2023-02-12T03:52:45;153382.44;;;3.17;46.94
5350;BME280;2697;42.144;24.794;2023-02-12T03:55:11;153375.84;;;3.14;47.54
5350;BME280;2697;42.144;24.794;2023-02-12T03:57:41;153399.41;;;3.23;47.42
5350;BME280;2697;42.144;24.794;2023-02-12T04:00:15;153379.78;;;3.15;46.46
5350;BME280;2697;42.144;24.794;2023-02-12T04:02:41;153438.69;;;3.38;46.17
5350;BME280;2697;42.144;24.794;2023-02-12T04:05:16;153425.59;;;3.33;46.09
5350;BME280;2697;42.144;24.794;2023-02-12T04:07:41;153420.34;;;3.31;46.28
5350;BME280;2697;42.144;24.794;2023-02-12T04:10:07;153447.84;;;3.42;47.38
5350;BME280;2697;42.144;24.794;2023-02-12T04:12:49;153429.50;;;3.35;46.83
5350;BME280;2697;42.144;24.794;2023-02-12T04:17:54;153497.56;;;3.61;46.70
5350;BME280;2697;42.144;24.794;2023-02-12T04:28:32;153556.53;;;3.84;46.84
5350;BME280;2697;42.144;24.794;2023-02-12T04:34:31;153584.00;;;3.95;45.02
5350;BME280;2697;42.144;24.794;2023-02-12T04:37:09;153614.13;;;4.07;45.43
5350;BME280;2697;42.144;24.794;2023-02-12T04:39:38;153654.75;;;4.22;45.13
5350;BME280;2697;42.144;24.794;2023-02-12T04:42:05;153641.63;;;4.17;44.81
5350;BME280;2697;42.144;24.794;2023-02-12T04:44:33;153646.91;;;4.19;44.50
5350;BME280;2697;42.144;24.794;2023-02-12T04:46:59;153667.81;;;4.27;44.10
5350;BME280;2697;42.144;24.794;2023-02-12T04:49:26;153658.66;;;4.24;44.03
5350;BME280;2697;42.144;24.794;2023-02-12T04:51:52;153658.66;;;4.24;44.16
5350;BME280;2697;42.144;24.794;2023-02-12T04:54:19;153699.28;;;4.40;43.64
5350;BME280;2697;42.144;24.794;2023-02-12T04:56:45;153654.75;;;4.22;43.89
5350;BME280;2697;42.144;24.794;2023-02-12T04:59:10;153657.34;;;4.23;44.32
5350;BME280;2697;42.144;24.794;2023-02-12T05:01:37;153673.09;;;4.29;44.29
5350;BME280;2697;42.144;24.794;2023-02-12T05:04:04;153641.63;;;4.17;44.94
5350;BME280;2697;42.144;24.794;2023-02-12T05:06:30;153641.63;;;4.17;44.99
5350;BME280;2697;42.144;24.794;2023-02-12T05:08:55;153620.66;;;4.09;45.32
5350;BME280;2697;42.144;24.794;2023-02-12T05:11:21;153633.78;;;4.14;45.51
5350;BME280;2697;42.144;24.794;2023-02-12T05:13:51;153640.31;;;4.17;44.92
5350;BME280;2697;42.144;24.794;2023-02-12T05:16:18;153623.31;;;4.10;44.83
5350;BME280;2697;42.144;24.794;2023-02-12T05:18:44;153623.31;;;4.10;45.02
5350;BME280;2697;42.144;24.794;2023-02-12T05:21:09;153636.38;;;4.15;45.72
5350;BME280;2697;42.144;24.794;2023-02-12T05:23:36;153641.63;;;4.17;46.10
5350;BME280;2697;42.144;24.794;2023-02-12T05:26:08;153641.63;;;4.17;45.38
5350;BME280;2697;42.144;24.794;2023-02-12T05:28:34;153624.63;;;4.11;46.00
5350;BME280;2697;42.144;24.794;2023-02-12T05:31:01;153611.50;;;4.06;46.50
5350;BME280;2697;42.144;24.794;2023-02-12T05:33:27;153616.72;;;4.08;45.91
5350;BME280;2697;42.144;24.794;2023-02-12T05:35:52;153620.66;;;4.09;46.49
5350;BME280;2697;42.144;24.794;2023-02-12T05:38:19;153658.66;;;4.24;46.41
5350;BME280;2697;42.144;24.794;2023-02-12T05:40:45;153599.75;;;4.01;46.50
5350;BME280;2697;42.144;24.794;2023-02-12T05:43:10;153606.28;;;4.04;47.05
5350;BME280;2697;42.144;24.794;2023-02-12T05:45:35;153629.84;;;4.13;46.75
5350;BME280;2697;42.144;24.794;2023-02-12T05:48:02;153641.63;;;4.17;47.04
5350;BME280;2697;42.144;24.794;2023-02-12T05:50:28;153663.88;;;4.26;47.37
5350;BME280;2697;42.144;24.794;2023-02-12T05:52:54;153700.59;;;4.40;46.67
5350;BME280;2697;42.144;24.794;2023-02-12T05:55:19;153718.94;;;4.47;46.42
5350;BME280;2697;42.144;24.794;2023-02-12T05:57:45;153720.25;;;4.48;46.29
5350;BME280;2697;42.144;24.794;2023-02-12T06:00:11;153741.22;;;4.56;45.47
5350;BME280;2697;42.144;24.794;2023-02-12T06:02:36;153760.84;;;4.64;46.01
5350;BME280;2697;42.144;24.794;2023-02-12T06:05:02;153781.81;;;4.72;45.20
5350;BME280;2697;42.144;24.794;2023-02-12T06:07:28;153809.31;;;4.82;45.20
5350;BME280;2697;42.144;24.794;2023-02-12T06:09:53;153832.91;;;4.92;45.98
5350;BME280;2697;42.144;24.794;2023-02-12T06:12:21;153863.09;;;5.03;46.00
5350;BME280;2697;42.144;24.794;2023-02-12T06:14:46;153888.00;;;5.13;45.21
5350;BME280;2697;42.144;24.794;2023-02-12T06:17:12;153889.31;;;5.13;44.29
5350;BME280;2697;42.144;24.794;2023-02-12T06:19:37;153922.06;;;5.26;43.99
5350;BME280;2697;42.144;24.794;2023-02-12T06:22:03;153945.66;;;5.35;44.74
5350;BME280;2697;42.144;24.794;2023-02-12T06:24:28;153948.28;;;5.36;44.47
5350;BME280;2697;42.144;24.794;2023-02-12T06:26:54;153953.50;;;5.38;44.94
5350;BME280;2697;42.144;24.794;2023-02-12T06:29:20;153958.78;;;5.40;44.58
5350;BME280;2697;42.144;24.794;2023-02-12T06:31:46;153970.56;;;5.45;44.64
5350;BME280;2697;42.144;24.794;2023-02-12T06:34:13;153977.09;;;5.48;44.99
5350;BME280;2697;42.144;24.794;2023-02-12T06:36:41;153991.56;;;5.53;44.88
5350;BME280;2697;42.144;24.794;2023-02-12T06:39:09;154024.31;;;5.66;44.96
5350;BME280;2697;42.144;24.794;2023-02-12T06:41:35;154019.09;;;5.64;44.59
5350;BME280;2697;42.144;24.794;2023-02-12T06:44:01;154050.53;;;5.76;44.78
5350;BME280;2697;42.144;24.794;2023-02-12T06:46:26;154100.44;;;5.95;44.84
5350;BME280;2697;42.144;24.794;2023-02-12T06:48:56;154108.34;;;5.98;44.46
5350;BME280;2697;42.144;24.794;2023-02-12T06:51:22;154131.94;;;6.08;44.46
5350;BME280;2697;42.144;24.794;2023-02-12T06:53:48;154152.94;;;6.16;44.93
5350;BME280;2697;42.144;24.794;2023-02-12T06:56:15;154159.50;;;6.18;44.77
5350;BME280;2697;42.144;24.794;2023-02-12T06:58:43;154164.72;;;6.20;44.75
5350;BME280;2697;42.144;24.794;2023-02-12T07:01:13;154183.13;;;6.27;44.34
5350;BME280;2697;42.144;24.794;2023-02-12T07:03:42;154205.44;;;6.36;44.05
5350;BME280;2697;42.144;24.794;2023-02-12T07:06:08;154202.81;;;6.35;44.03
5350;BME280;2697;42.144;24.794;2023-02-12T07:08:34;154192.28;;;6.31;44.84
5350;BME280;2697;42.144;24.794;2023-02-12T07:10:59;154196.22;;;6.33;44.83
5350;BME280;2697;42.144;24.794;2023-02-12T07:13:25;154213.28;;;6.39;44.55
5350;BME280;2697;42.144;24.794;2023-02-12T07:15:50;154236.91;;;6.48;45.17
5350;BME280;2697;42.144;24.794;2023-02-12T07:18:15;154202.81;;;6.35;45.14
5350;BME280;2697;42.144;24.794;2023-02-12T07:20:41;154184.41;;;6.28;46.52
5350;BME280;2697;42.144;24.794;2023-02-12T07:23:10;154209.34;;;6.38;46.00
5350;BME280;2697;42.144;24.794;2023-02-12T07:25:35;154197.56;;;6.33;46.45
5350;BME280;2697;42.144;24.794;2023-02-12T07:28:00;154211.97;;;6.39;46.42
5350;BME280;2697;42.144;24.794;2023-02-12T07:30:26;154222.50;;;6.43;47.11
5350;BME280;2697;42.144;24.794;2023-02-12T07:32:51;154288.09;;;6.68;46.62
5350;BME280;2697;42.144;24.794;2023-02-12T07:35:16;154268.38;;;6.61;46.88
5350;BME280;2697;42.144;24.794;2023-02-12T07:37:42;154281.53;;;6.66;46.93
5350;BME280;2697;42.144;24.794;2023-02-12T07:40:08;154246.13;;;6.52;46.78
5350;BME280;2697;42.144;24.794;2023-02-12T07:42:33;154284.16;;;6.67;46.82
5350;BME280;2697;42.144;24.794;2023-02-12T07:44:58;154318.31;;;6.80;46.94
5350;BME280;2697;42.144;24.794;2023-02-12T07:47:24;154323.56;;;6.82;46.73
5350;BME280;2697;42.144;24.794;2023-02-12T07:49:49;154344.56;;;6.90;46.34
5350;BME280;2697;42.144;24.794;2023-02-12T07:52:14;154336.66;;;6.87;46.52
5350;BME280;2697;42.144;24.794;2023-02-12T07:54:40;154349.81;;;6.92;46.45
5350;BME280;2697;42.144;24.794;2023-02-12T07:57:05;154343.25;;;6.90;46.23
5350;BME280;2697;42.144;24.794;2023-02-12T07:59:30;154382.59;;;7.05;46.36
5350;BME280;2697;42.144;24.794;2023-02-12T08:01:57;154352.44;;;6.93;46.48
5350;BME280;2697;42.144;24.794;2023-02-12T08:04:24;154389.22;;;7.07;46.21
5350;BME280;2697;42.144;24.794;2023-02-12T08:06:50;154432.50;;;7.24;45.93
5350;BME280;2697;42.144;24.794;2023-02-12T08:09:18;154383.91;;;7.05;46.45
5350;BME280;2697;42.144;24.794;2023-02-12T08:11:45;154391.81;;;7.08;46.15
5350;BME280;2697;42.144;24.794;2023-02-12T08:14:12;154376.06;;;7.02;46.58
5350;BME280;2697;42.144;24.794;2023-02-12T08:16:39;154368.19;;;6.99;46.98
5350;BME280;2697;42.144;24.794;2023-02-12T08:19:05;154385.22;;;7.06;46.81
5350;BME280;2697;42.144;24.794;2023-02-12T08:21:31;154391.81;;;7.08;46.81
5350;BME280;2697;42.144;24.794;2023-02-12T08:23:57;154443.03;;;7.28;46.76
5350;BME280;2697;42.144;24.794;2023-02-12T08:26:27;154410.16;;;7.15;47.31
5350;BME280;2697;42.144;24.794;2023-02-12T08:28:56;154452.22;;;7.32;46.84
5350;BME280;2697;42.144;24.794;2023-02-12T08:31:24;154401.00;;;7.12;47.28
5350;BME280;2697;42.144;24.794;2023-02-12T08:33:51;154445.66;;;7.29;47.59
5350;BME280;2697;42.144;24.794;2023-02-12T08:36:19;154487.69;;;7.46;47.64
5350;BME280;2697;42.144;24.794;2023-02-12T08:38:45;154496.88;;;7.49;47.40
5350;BME280;2697;42.144;24.794;2023-02-12T08:41:14;154517.88;;;7.57;47.65
5350;BME280;2697;42.144;24.794;2023-02-12T08:43:41;154578.28;;;7.81;47.38
5350;BME280;2697;42.144;24.794;2023-02-12T08:46:18;154532.31;;;7.63;49.01
5350;BME280;2697;42.144;24.794;2023-02-12T08:48:44;154562.56;;;7.75;49.69
5350;BME280;2697;42.144;24.794;2023-02-12T08:51:13;154533.66;;;7.63;50.32
5350;BME280;2697;42.144;24.794;2023-02-12T08:53:41;154573.06;;;7.79;50.36
5350;BME280;2697;42.144;24.794;2023-02-12T08:56:07;154549.41;;;7.69;51.03
5350;BME280;2697;42.144;24.794;2023-02-12T08:58:34;154600.63;;;7.89;51.57
5350;BME280;2697;42.144;24.794;2023-02-12T09:01:00;154510.03;;;7.54;52.33
5350;BME280;2697;42.144;24.794;2023-02-12T09:03:25;154546.78;;;7.68;52.71
5350;BME280;2697;42.144;24.794;2023-02-12T09:05:51;154548.09;;;7.69;52.96
5350;BME280;2697;42.144;24.794;2023-02-12T09:08:16;154540.22;;;7.66;53.69
5350;BME280;2697;42.144;24.794;2023-02-12T09:10:42;154565.19;;;7.76;53.67
5350;BME280;2697;42.144;24.794;2023-02-12T09:13:09;154515.28;;;7.56;53.55
5350;BME280;2697;42.144;24.794;2023-02-12T09:15:39;154507.34;;;7.53;53.89
5350;BME280;2697;42.144;24.794;2023-02-12T09:18:05;154549.41;;;7.69;53.22
5350;BME280;2697;42.144;24.794;2023-02-12T09:20:31;154580.97;;;7.82;53.50
5350;BME280;2697;42.144;24.794;2023-02-12T09:22:57;154617.72;;;7.96;53.33
5350;BME280;2697;42.144;24.794;2023-02-12T09:25:23;154615.09;;;7.95;53.38
5350;BME280;2697;42.144;24.794;2023-02-12T09:27:48;154592.78;;;7.86;53.55
5350;BME280;2697;42.144;24.794;2023-02-12T09:30:14;154612.47;;;7.94;53.51
5350;BME280;2697;42.144;24.794;2023-02-12T09:32:39;154634.81;;;8.03;53.56
5350;BME280;2697;42.144;24.794;2023-02-12T09:35:05;154601.94;;;7.90;53.33
5350;BME280;2697;42.144;24.794;2023-02-12T09:37:30;154588.84;;;7.85;53.94
5350;BME280;2697;42.144;24.794;2023-02-12T09:39:56;154578.28;;;7.81;53.99
5350;BME280;2697;42.144;24.794;2023-02-12T09:42:37;154644.00;;;8.06;53.60
5350;BME280;2697;42.144;24.794;2023-02-12T09:45:22;154636.13;;;8.03;53.53
5350;BME280;2697;42.144;24.794;2023-02-12T09:53:15;154548.09;;;7.69;54.83
5350;BME280;2697;42.144;24.794;2023-02-12T09:55:42;154540.22;;;7.66;54.07
5350;BME280;2697;42.144;24.794;2023-02-12T09:58:21;154549.41;;;7.69;54.47
5350;BME280;2697;42.144;24.794;2023-02-12T10:00:48;154482.41;;;7.43;55.02
5350;BME280;2697;42.144;24.794;2023-02-12T10:03:15;154519.19;;;7.58;54.73
5350;BME280;2697;42.144;24.794;2023-02-12T10:05:48;154504.72;;;7.52;55.02
5350;BME280;2697;42.144;24.794;2023-02-12T10:27:53;154956.97;;;9.27;49.76
5350;BME280;2697;42.144;24.794;2023-02-12T10:30:47;154917.53;;;9.12;49.44
5350;BME280;2697;42.144;24.794;2023-02-12T10:33:24;154947.78;;;9.24;48.74
5350;BME280;2697;42.144;24.794;2023-02-12T10:35:55;154992.50;;;9.41;47.46
5350;BME280;2697;42.144;24.794;2023-02-12T10:38:28;155004.31;;;9.46;46.73
5350;BME280;2697;42.144;24.794;2023-02-12T10:40:55;154918.84;;;9.12;48.05
5350;BME280;2697;42.144;24.794;2023-02-12T10:43:23;155018.81;;;9.51;47.34
5350;BME280;2697;42.144;24.794;2023-02-12T10:45:48;155124.06;;;9.92;46.89
5350;BME280;2697;42.144;24.794;2023-02-12T10:48:19;155114.88;;;9.88;47.42
5350;BME280;2697;42.144;24.794;2023-02-12T10:53:37;155133.25;;;9.95;47.52
5350;BME280;2697;42.144;24.794;2023-02-12T10:56:20;155104.31;;;9.84;48.17
5350;BME280;2697;42.144;24.794;2023-02-12T11:01:30;155024.06;;;9.53;48.62
5350;BME280;2697;42.144;24.794;2023-02-12T11:03:57;155022.75;;;9.53;49.05
5350;BME280;2697;42.144;24.794;2023-02-12T11:06:25;155039.88;;;9.59;48.84
5350;BME280;2697;42.144;24.794;2023-02-12T11:08:52;155004.31;;;9.46;48.45
5350;BME280;2697;42.144;24.794;2023-02-12T11:11:29;155066.19;;;9.69;48.60
5350;BME280;2697;42.144;24.794;2023-02-12T11:16:34;155130.63;;;9.94;47.28
5350;BME280;2697;42.144;24.794;2023-02-12T11:19:06;155160.94;;;10.06;46.52
5350;BME280;2697;42.144;24.794;2023-02-12T11:21:33;155117.50;;;9.89;46.44
5350;BME280;2697;42.144;24.794;2023-02-12T11:27:16;155280.78;;;10.52;45.74
5350;BME280;2697;42.144;24.794;2023-02-12T11:29:44;155342.66;;;10.76;45.28
5350;BME280;2697;42.144;24.794;2023-02-12T11:32:17;155346.59;;;10.78;45.32
5350;BME280;2697;42.144;24.794;2023-02-12T11:34:43;155465.13;;;11.24;44.47
5350;BME280;2697;42.144;24.794;2023-02-12T11:37:16;155429.59;;;11.10;44.14
5350;BME280;2697;42.144;24.794;2023-02-12T11:39:45;155428.28;;;11.09;43.91
5350;BME280;2697;42.144;24.794;2023-02-12T11:42:20;155326.88;;;10.70;43.85
5350;BME280;2697;42.144;24.794;2023-02-12T11:44:54;155413.78;;;11.04;43.89
5350;BME280;2697;42.144;24.794;2023-02-12T11:47:23;155224.13;;;10.31;44.44
5350;BME280;2697;42.144;24.794;2023-02-12T11:52:42;155183.31;;;10.15;45.18
5350;BME280;2697;42.144;24.794;2023-02-12T11:55:29;155185.94;;;10.16;45.22
5350;BME280;2697;42.144;24.794;2023-02-12T11:58:16;155204.38;;;10.23;44.67
5350;BME280;2697;42.144;24.794;2023-02-12T12:00:49;155154.31;;;10.04;45.47
5350;BME280;2697;42.144;24.794;2023-02-12T12:05:59;155287.34;;;10.55;45.05
5350;BME280;2697;42.144;24.794;2023-02-12T12:08:30;155370.28;;;10.87;44.16
5350;BME280;2697;42.144;24.794;2023-02-12T12:11:12;155379.56;;;10.91;44.01
5350;BME280;2697;42.144;24.794;2023-02-12T12:14:03;155462.50;;;11.23;43.38
5350;BME280;2697;42.144;24.794;2023-02-12T12:19:27;155586.38;;;11.70;42.53
5350;BME280;2697;42.144;24.794;2023-02-12T12:24:48;155658.91;;;11.98;42.31
5350;BME280;2697;42.144;24.794;2023-02-12T12:27:35;155585.06;;;11.70;42.29
5350;BME280;2697;42.144;24.794;2023-02-12T12:33:19;155554.75;;;11.58;42.51
5350;BME280;2697;42.144;24.794;2023-02-12T12:39:00;155491.47;;;11.34;42.51
5350;BME280;2697;42.144;24.794;2023-02-12T12:49:33;155380.88;;;10.91;44.14
5350;BME280;2697;42.144;24.794;2023-02-12T12:52:05;155371.59;;;10.88;43.52
5350;BME280;2697;42.144;24.794;2023-02-12T12:54:46;155345.28;;;10.77;44.53
5350;BME280;2697;42.144;24.794;2023-02-12T13:13:15;155399.31;;;10.98;43.26
5350;BME280;2697;42.144;24.794;2023-02-12T13:21:54;155354.53;;;10.81;43.75
5350;BME280;2697;42.144;24.794;2023-02-12T13:24:24;155317.63;;;10.67;43.80
5350;BME280;2697;42.144;24.794;2023-02-12T13:26:56;155386.13;;;10.93;43.78
5350;BME280;2697;42.144;24.794;2023-02-12T13:29:30;155336.06;;;10.74;44.27
5350;BME280;2697;42.144;24.794;2023-02-12T13:32:02;155328.19;;;10.71;44.55
5350;BME280;2697;42.144;24.794;2023-02-12T13:34:31;155337.38;;;10.74;44.05
5350;BME280;2697;42.144;24.794;2023-02-12T13:37:03;155301.81;;;10.61;43.91
5350;BME280;2697;42.144;24.794;2023-02-12T13:39:41;155296.56;;;10.59;43.92
5350;BME280;2697;42.144;24.794;2023-02-12T13:42:11;155243.91;;;10.38;44.27
5350;BME280;2697;42.144;24.794;2023-02-12T13:44:57;155304.47;;;10.62;43.75
5350;BME280;2697;42.144;24.794;2023-02-12T13:50:46;155241.25;;;10.37;44.54
5350;BME280;2697;42.144;24.794;2023-02-12T14:01:05;155266.28;;;10.47;44.71
5350;BME280;2697;42.144;24.794;2023-02-12T14:03:34;155187.25;;;10.16;45.55
5350;BME280;2697;42.144;24.794;2023-02-12T14:06:20;155267.59;;;10.47;45.19
5350;BME280;2697;42.144;24.794;2023-02-12T14:11:16;155286.03;;;10.54;44.86
5350;BME280;2697;42.144;24.794;2023-02-12T14:13:57;155230.75;;;10.33;45.18
5350;BME280;2697;42.144;24.794;2023-02-12T14:21:57;155151.69;;;10.03;45.76
5350;BME280;2697;42.144;24.794;2023-02-12T14:37:55;154993.81;;;9.41;49.39
5350;BME280;2697;42.144;24.794;2023-02-12T14:43:00;154958.28;;;9.28;49.98
5350;BME280;2697;42.144;24.794;2023-02-12T14:45:34;154914.84;;;9.11;50.20
5350;BME280;2697;42.144;24.794;2023-02-12T14:48:01;154885.94;;;9.00;50.77
5350;BME280;2697;42.144;24.794;2023-02-12T14:50:30;154850.44;;;8.86;50.84
5350;BME280;2697;42.144;24.794;2023-02-12T14:53:26;154858.31;;;8.89;51.19
5350;BME280;2697;42.144;24.794;2023-02-12T14:55:51;154834.66;;;8.80;51.46
5350;BME280;2697;42.144;24.794;2023-02-12T14:58:19;154812.31;;;8.71;51.99
5350;BME280;2697;42.144;24.794;2023-02-12T15:00:47;154803.13;;;8.68;52.54
5350;BME280;2697;42.144;24.794;2023-02-12T15:03:17;154755.78;;;8.49;52.82
5350;BME280;2697;42.144;24.794;2023-02-12T15:06:08;154750.53;;;8.47;53.03
5350;BME280;2697;42.144;24.794;2023-02-12T15:08:51;154670.28;;;8.16;54.00
5350;BME280;2697;42.144;24.794;2023-02-12T15:11:22;154704.47;;;8.29;53.83
5350;BME280;2697;42.144;24.794;2023-02-12T15:19:32;154630.88;;;8.01;54.92
5350;BME280;2697;42.144;24.794;2023-02-12T15:21:59;154636.13;;;8.03;55.08
5350;BME280;2697;42.144;24.794;2023-02-12T15:24:26;154645.31;;;8.07;55.15
5350;BME280;2697;42.144;24.794;2023-02-12T15:27:00;154620.34;;;7.97;55.62
5350;BME280;2697;42.144;24.794;2023-02-12T15:29:30;154604.56;;;7.91;55.17
5350;BME280;2697;42.144;24.794;2023-02-12T15:32:01;154583.59;;;7.83;56.44
5350;BME280;2697;42.144;24.794;2023-02-12T15:34:31;154582.28;;;7.82;57.08
5350;BME280;2697;42.144;24.794;2023-02-12T15:37:00;154594.06;;;7.87;56.73
5350;BME280;2697;42.144;24.794;2023-02-12T15:39:26;154579.59;;;7.81;56.63
5350;BME280;2697;42.144;24.794;2023-02-12T15:41:53;154558.63;;;7.73;57.63
5350;BME280;2697;42.144;24.794;2023-02-12T15:47:08;154588.84;;;7.85;57.40
5350;BME280;2697;42.144;24.794;2023-02-12T15:49:37;154591.44;;;7.86;57.36
5350;BME280;2697;42.144;24.794;2023-02-12T15:52:08;154557.31;;;7.72;57.60
5350;BME280;2697;42.144;24.794;2023-02-12T15:54:35;154542.84;;;7.67;58.01
5350;BME280;2697;42.144;24.794;2023-02-12T15:57:09;154536.28;;;7.64;58.05
5350;BME280;2697;42.144;24.794;2023-02-12T15:59:34;154512.66;;;7.55;58.61
5350;BME280;2697;42.144;24.794;2023-02-12T16:02:01;154540.22;;;7.66;58.68
5350;BME280;2697;42.144;24.794;2023-02-12T16:04:32;154546.78;;;7.68;58.51
5350;BME280;2697;42.144;24.794;2023-02-12T16:06:59;154506.03;;;7.53;58.94
5350;BME280;2697;42.144;24.794;2023-02-12T16:09:29;154507.34;;;7.53;59.15